sensor_id;sensor_type;location;lat;lon;timestamp;pressure;altitude;pressure_sealevel;temperature;humidity
78671;BME280;68277;52.724;6.516;2023-04-10T00:01:22;102190.31;;;7.85;63.41
78671;BME280;68277;52.724;6.516;2023-04-10T00:03:48;102200.03;;;7.89;64.23
78671;BME280;68277;52.724;6.516;2023-04-10T00:06:13;102193.81;;;7.83;63.85
78671;BME280;68277;52.724;6.516;2023-04-10T00:08:39;102205.28;;;7.88;63.88
78671;BME280;68277;52.724;6.516;2023-04-10T00:11:04;102202.66;;;7.89;63.75
78671;BME280;68277;52.724;6.516;2023-04-10T00:13:31;102199.16;;;7.90;63.38
78671;BME280;68277;52.724;6.516;2023-04-10T00:15:56;102191.22;;;7.86;63.50
78671;BME280;68277;52.724;6.516;2023-04-10T00:18:22;102210.66;;;7.97;63.95
78671;BME280;68277;52.724;6.516;2023-04-10T00:20:48;102192.06;;;7.83;63.56
78671;BME280;68277;52.724;6.516;2023-04-10T00:23:14;102167.31;;;7.68;64.12
78671;BME280;68277;52.724;6.516;2023-04-10T00:25:40;102210.59;;;7.91;63.92
78671;BME280;68277;52.724;6.516;2023-04-10T00:28:05;102194.66;;;7.79;64.10
78671;BME280;68277;52.724;6.516;2023-04-10T00:30:31;102187.59;;;7.75;64.55
78671;BME280;68277;52.724;6.516;2023-04-10T00:32:57;102203.50;;;7.85;64.07
78671;BME280;68277;52.724;6.516;2023-04-10T00:35:22;102161.97;;;7.60;64.14
78671;BME280;68277;52.724;6.516;2023-04-10T00:37:48;102138.03;;;7.42;64.02
78671;BME280;68277;52.724;6.516;2023-04-10T00:40:15;102199.03;;;7.77;65.10
78671;BME280;68277;52.724;6.516;2023-04-10T00:42:40;102191.03;;;7.69;64.74
78671;BME280;68277;52.724;6.516;2023-04-10T00:45:06;102195.47;;;7.73;64.65
78671;BME280;68277;52.724;6.516;2023-04-10T00:47:31;102180.41;;;7.63;64.81
78671;BME280;68277;52.724;6.516;2023-04-10T00:49:58;102190.13;;;7.67;64.02
78671;BME280;68277;52.724;6.516;2023-04-10T00:52:25;102128.28;;;7.32;66.40
78671;BME280;68277;52.724;6.516;2023-04-10T00:54:56;102137.19;;;7.43;64.68
78671;BME280;68277;52.724;6.516;2023-04-10T00:57:22;102165.44;;;7.59;65.59
78671;BME280;68277;52.724;6.516;2023-04-10T00:59:49;102153.97;;;7.52;64.65
78671;BME280;68277;52.724;6.516;2023-04-10T01:02:17;102129.22;;;7.37;65.11
78671;BME280;68277;52.724;6.516;2023-04-10T01:04:44;102099.19;;;7.21;64.68
78671;BME280;68277;52.724;6.516;2023-04-10T01:10:04;102141.59;;;7.44;66.11
78671;BME280;68277;52.724;6.516;2023-04-10T01:13:38;102136.28;;;7.42;65.63
78671;BME280;68277;52.724;6.516;2023-04-10T01:16:04;102126.63;;;7.41;65.82
78671;BME280;68277;52.724;6.516;2023-04-10T01:18:41;102133.66;;;7.42;65.63
78671;BME280;68277;52.724;6.516;2023-04-10T01:21:10;102087.81;;;7.24;65.30
78671;BME280;68277;52.724;6.516;2023-04-10T01:26:11;102111.59;;;7.31;65.31
78671;BME280;68277;52.724;6.516;2023-04-10T01:28:51;102108.13;;;7.35;66.58
78671;BME280;68277;52.724;6.516;2023-04-10T01:31:49;102100.06;;;7.22;65.70
78671;BME280;68277;52.724;6.516;2023-04-10T01:34:22;102113.34;;;7.31;65.50
78671;BME280;68277;52.724;6.516;2023-04-10T01:36:56;102095.66;;;7.18;67.13
78671;BME280;68277;52.724;6.516;2023-04-10T01:39:25;102121.19;;;7.28;65.73
78671;BME280;68277;52.724;6.516;2023-04-10T01:41:53;102114.13;;;7.24;65.77
78671;BME280;68277;52.724;6.516;2023-04-10T01:44:32;102105.34;;;7.20;65.47
78671;BME280;68277;52.724;6.516;2023-04-10T01:46:59;102092.03;;;7.10;66.04
78671;BME280;68277;52.724;6.516;2023-04-10T01:49:26;102109.75;;;7.23;66.71
78671;BME280;68277;52.724;6.516;2023-04-10T01:51:59;102100.78;;;7.07;66.11
78671;BME280;68277;52.724;6.516;2023-04-10T01:54:27;102109.63;;;7.14;65.64
78671;BME280;68277;52.724;6.516;2023-04-10T01:56:53;102095.44;;;7.01;65.92
78671;BME280;68277;52.724;6.516;2023-04-10T01:59:19;102094.56;;;7.01;66.21
78671;BME280;68277;52.724;6.516;2023-04-10T02:01:45;102053.88;;;6.76;66.03
78671;BME280;68277;52.724;6.516;2023-04-10T02:04:12;102097.97;;;6.95;68.14
78671;BME280;68277;52.724;6.516;2023-04-10T02:07:09;102105.97;;;7.03;66.43
78671;BME280;68277;52.724;6.516;2023-04-10T02:12:21;102074.16;;;6.83;66.03
78671;BME280;68277;52.724;6.516;2023-04-10T02:14:48;102100.59;;;6.92;66.86
78671;BME280;68277;52.724;6.516;2023-04-10T02:17:17;102092.75;;;6.98;66.08
78671;BME280;68277;52.724;6.516;2023-04-10T02:19:47;102071.50;;;6.81;67.59
78671;BME280;68277;52.724;6.516;2023-04-10T02:22:15;102090.03;;;6.87;66.87
78671;BME280;68277;52.724;6.516;2023-04-10T02:24:41;102088.31;;;6.93;66.56
78671;BME280;68277;52.724;6.516;2023-04-10T02:27:09;102058.19;;;6.68;66.70
78671;BME280;68277;52.724;6.516;2023-04-10T02:29:35;102088.25;;;6.88;66.60
78671;BME280;68277;52.724;6.516;2023-04-10T02:32:02;102059.13;;;6.74;66.51
78671;BME280;68277;52.724;6.516;2023-04-10T02:34:28;102059.09;;;6.70;67.72
78671;BME280;68277;52.724;6.516;2023-04-10T02:36:53;102057.44;;;6.78;67.24
78671;BME280;68277;52.724;6.516;2023-04-10T02:39:19;102074.22;;;6.87;66.87
78671;BME280;68277;52.724;6.516;2023-04-10T02:41:49;102017.69;;;6.55;67.39
78671;BME280;68277;52.724;6.516;2023-04-10T02:44:14;102012.41;;;6.55;67.19
78671;BME280;68277;52.724;6.516;2023-04-10T02:46:41;102072.44;;;6.85;66.84
78671;BME280;68277;52.724;6.516;2023-04-10T02:49:07;102056.50;;;6.74;67.61
78671;BME280;68277;52.724;6.516;2023-04-10T02:51:35;102045.94;;;6.71;67.57
78671;BME280;68277;52.724;6.516;2023-04-10T02:54:02;102068.03;;;6.84;67.06
78671;BME280;68277;52.724;6.516;2023-04-10T02:56:33;102059.25;;;6.82;66.97
78671;BME280;68277;52.724;6.516;2023-04-10T02:58:59;102029.19;;;6.63;67.35
78671;BME280;68277;52.724;6.516;2023-04-10T03:01:25;102038.94;;;6.70;67.55
78671;BME280;68277;52.724;6.516;2023-04-10T03:03:51;102049.50;;;6.75;67.78
78671;BME280;68277;52.724;6.516;2023-04-10T03:06:24;102015.91;;;6.53;66.38
78671;BME280;68277;52.724;6.516;2023-04-10T03:08:54;102050.34;;;6.72;66.82
78671;BME280;68277;52.724;6.516;2023-04-10T03:11:20;102048.56;;;6.68;68.65
78671;BME280;68277;52.724;6.516;2023-04-10T03:13:46;102019.41;;;6.55;67.15
78671;BME280;68277;52.724;6.516;2023-04-10T03:16:14;102030.88;;;6.60;67.73
78671;BME280;68277;52.724;6.516;2023-04-10T03:18:41;102038.78;;;6.60;66.97
78671;BME280;68277;52.724;6.516;2023-04-10T03:21:07;102067.91;;;6.75;67.18
78671;BME280;68277;52.724;6.516;2023-04-10T03:23:32;102040.50;;;6.56;67.28
78671;BME280;68277;52.724;6.516;2023-04-10T03:26:00;102024.56;;;6.46;67.21
78671;BME280;68277;52.724;6.516;2023-04-10T03:28:28;102016.66;;;6.44;67.66
78671;BME280;68277;52.724;6.516;2023-04-10T03:30:54;102046.59;;;6.52;66.86
78671;BME280;68277;52.724;6.516;2023-04-10T03:33:20;102061.66;;;6.67;67.18
78671;BME280;68277;52.724;6.516;2023-04-10T03:35:47;102060.81;;;6.66;67.50
78671;BME280;68277;52.724;6.516;2023-04-10T03:38:13;102030.81;;;6.52;67.08
78671;BME280;68277;52.724;6.516;2023-04-10T03:40:38;102063.44;;;6.66;67.09
78671;BME280;68277;52.724;6.516;2023-04-10T03:43:08;102006.88;;;6.34;68.85
78671;BME280;68277;52.724;6.516;2023-04-10T03:45:33;102033.34;;;6.48;68.38
78671;BME280;68277;52.724;6.516;2023-04-10T03:47:59;102038.66;;;6.51;67.49
78671;BME280;68277;52.724;6.516;2023-04-10T03:50:27;102052.81;;;6.60;67.47
78671;BME280;68277;52.724;6.516;2023-04-10T03:52:57;102055.38;;;6.54;68.14
78671;BME280;68277;52.724;6.516;2023-04-10T03:55:24;102048.28;;;6.49;67.81
78671;BME280;68277;52.724;6.516;2023-04-10T03:57:50;102041.16;;;6.40;67.68
78671;BME280;68277;52.724;6.516;2023-04-10T04:00:19;102063.22;;;6.51;67.74
78671;BME280;68277;52.724;6.516;2023-04-10T04:02:46;102034.06;;;6.35;67.63
78671;BME280;68277;52.724;6.516;2023-04-10T04:05:17;102034.91;;;6.32;67.47
78671;BME280;68277;52.724;6.516;2023-04-10T04:07:50;102061.44;;;6.50;68.60
78671;BME280;68277;52.724;6.516;2023-04-10T04:10:39;102044.75;;;6.45;67.52
78671;BME280;68277;52.724;6.516;2023-04-10T04:13:18;101978.56;;;6.15;67.62
78671;BME280;68277;52.724;6.516;2023-04-10T04:16:09;102024.50;;;6.41;67.87
78671;BME280;68277;52.724;6.516;2023-04-10T04:18:49;101990.09;;;6.22;67.66
78671;BME280;68277;52.724;6.516;2023-04-10T04:21:19;101982.28;;;6.29;67.43
78671;BME280;68277;52.724;6.516;2023-04-10T04:24:14;102031.72;;;6.56;67.61
78671;BME280;68277;52.724;6.516;2023-04-10T04:26:58;102038.78;;;6.58;67.32
78671;BME280;68277;52.724;6.516;2023-04-10T04:29:59;102029.09;;;6.57;68.84
78671;BME280;68277;52.724;6.516;2023-04-10T04:32:54;102025.63;;;6.58;67.41
78671;BME280;68277;52.724;6.516;2023-04-10T04:35:33;101982.41;;;6.38;67.12
78671;BME280;68277;52.724;6.516;2023-04-10T04:38:15;102023.03;;;6.63;67.92
78671;BME280;68277;52.724;6.516;2023-04-10T04:41:01;102001.06;;;6.56;67.63
78671;BME280;68277;52.724;6.516;2023-04-10T04:44:00;102012.63;;;6.70;67.83
78671;BME280;68277;52.724;6.516;2023-04-10T04:46:49;102011.78;;;6.73;67.76
78671;BME280;68277;52.724;6.516;2023-04-10T04:49:27;102003.88;;;6.73;67.43
78671;BME280;68277;52.724;6.516;2023-04-10T04:52:11;101964.19;;;6.55;67.15
78671;BME280;68277;52.724;6.516;2023-04-10T04:55:00;102006.53;;;6.76;68.15
78671;BME280;68277;52.724;6.516;2023-04-10T04:57:44;102007.41;;;6.75;67.72
78671;BME280;68277;52.724;6.516;2023-04-10T05:00:26;101944.78;;;6.44;68.43
78671;BME280;68277;52.724;6.516;2023-04-10T05:03:24;101979.16;;;6.60;67.92
78671;BME280;68277;52.724;6.516;2023-04-10T05:06:02;101988.91;;;6.66;67.89
78671;BME280;68277;52.724;6.516;2023-04-10T05:09:00;101996.88;;;6.73;68.59
78671;BME280;68277;52.724;6.516;2023-04-10T05:11:43;101970.38;;;6.60;67.42
78671;BME280;68277;52.724;6.516;2023-04-10T05:14:19;101995.16;;;6.77;67.65
78671;BME280;68277;52.724;6.516;2023-04-10T05:17:09;101999.56;;;6.81;68.49
78671;BME280;68277;52.724;6.516;2023-04-10T05:19:45;101982.00;;;6.78;67.01
78671;BME280;68277;52.724;6.516;2023-04-10T05:22:22;101993.50;;;6.86;68.02
78671;BME280;68277;52.724;6.516;2023-04-10T05:25:05;101938.81;;;6.58;67.50
78671;BME280;68277;52.724;6.516;2023-04-10T05:27:55;101908.00;;;6.45;67.63
78671;BME280;68277;52.724;6.516;2023-04-10T05:30:43;101990.03;;;6.87;68.02
78671;BME280;68277;52.724;6.516;2023-04-10T05:33:26;101987.41;;;6.89;67.94
78671;BME280;68277;52.724;6.516;2023-04-10T05:36:07;101990.13;;;6.97;66.81
78671;BME280;68277;52.724;6.516;2023-04-10T05:38:52;102001.63;;;7.08;67.87
78671;BME280;68277;52.724;6.516;2023-04-10T05:41:36;102002.56;;;7.14;67.23
78671;BME280;68277;52.724;6.516;2023-04-10T05:44:18;101969.16;;;7.06;66.80
78671;BME280;68277;52.724;6.516;2023-04-10T05:47:02;102000.06;;;7.28;66.92
78671;BME280;68277;52.724;6.516;2023-04-10T05:49:36;101964.06;;;7.22;67.23
78671;BME280;68277;52.724;6.516;2023-04-10T05:52:21;101994.94;;;7.43;67.21
78671;BME280;68277;52.724;6.516;2023-04-10T05:55:10;101974.72;;;7.40;66.52
78671;BME280;68277;52.724;6.516;2023-04-10T05:57:39;101971.31;;;7.50;66.56
78671;BME280;68277;52.724;6.516;2023-04-10T06:00:22;101987.34;;;7.79;66.84
78671;BME280;68277;52.724;6.516;2023-04-10T06:03:07;101983.06;;;7.95;65.82
78671;BME280;68277;52.724;6.516;2023-04-10T06:05:44;101951.38;;;7.84;65.36
78671;BME280;68277;52.724;6.516;2023-04-10T06:08:11;101937.28;;;7.79;65.72
78671;BME280;68277;52.724;6.516;2023-04-10T06:10:37;101979.59;;;8.08;65.76
78671;BME280;68277;52.724;6.516;2023-04-10T06:13:03;101969.09;;;8.09;65.78
78671;BME280;68277;52.724;6.516;2023-04-10T06:15:29;101984.97;;;8.24;64.42
78671;BME280;68277;52.724;6.516;2023-04-10T06:17:56;101945.44;;;8.23;64.68
78671;BME280;68277;52.724;6.516;2023-04-10T06:20:21;101920.94;;;8.41;64.09
78671;BME280;68277;52.724;6.516;2023-04-10T06:22:49;101949.25;;;9.14;62.97
78671;BME280;68277;52.724;6.516;2023-04-10T06:25:14;101971.28;;;9.89;60.84
78671;BME280;68277;52.724;6.516;2023-04-10T06:27:40;101950.97;;;10.00;59.63
78671;BME280;68277;52.724;6.516;2023-04-10T06:30:09;101948.28;;;10.06;60.26
78671;BME280;68277;52.724;6.516;2023-04-10T06:32:35;101945.53;;;10.50;58.98
78671;BME280;68277;52.724;6.516;2023-04-10T06:35:01;101940.38;;;10.15;59.46
78671;BME280;68277;52.724;6.516;2023-04-10T06:37:30;101920.16;;;9.76;59.85
78671;BME280;68277;52.724;6.516;2023-04-10T06:40:06;101946.63;;;9.67;61.24
78671;BME280;68277;52.724;6.516;2023-04-10T06:42:32;101939.56;;;9.54;61.70
78671;BME280;68277;52.724;6.516;2023-04-10T06:45:05;101907.84;;;9.37;60.98
78671;BME280;68277;52.724;6.516;2023-04-10T06:47:31;101905.25;;;9.46;60.98
78671;BME280;68277;52.724;6.516;2023-04-10T06:49:56;101910.50;;;9.49;60.25
78671;BME280;68277;52.724;6.516;2023-04-10T06:52:22;101916.59;;;10.12;59.11
78671;BME280;68277;52.724;6.516;2023-04-10T06:54:47;101916.59;;;11.48;54.73
78671;BME280;68277;52.724;6.516;2023-04-10T06:57:13;101903.53;;;11.29;55.67
78671;BME280;68277;52.724;6.516;2023-04-10T06:59:40;101912.06;;;10.43;57.06
78671;BME280;68277;52.724;6.516;2023-04-10T07:02:06;101893.66;;;9.99;58.37
78671;BME280;68277;52.724;6.516;2023-04-10T07:04:32;101914.81;;;9.99;59.67
78671;BME280;68277;52.724;6.516;2023-04-10T07:06:57;101895.38;;;10.06;58.92
78671;BME280;68277;52.724;6.516;2023-04-10T07:09:25;101902.44;;;10.07;58.76
78671;BME280;68277;52.724;6.516;2023-04-10T07:11:50;101894.50;;;10.23;58.72
78671;BME280;68277;52.724;6.516;2023-04-10T07:14:21;101871.53;;;10.27;58.73
78671;BME280;68277;52.724;6.516;2023-04-10T07:16:47;101887.41;;;10.32;58.90
78671;BME280;68277;52.724;6.516;2023-04-10T07:19:13;101887.41;;;10.33;57.98
78671;BME280;68277;52.724;6.516;2023-04-10T07:21:38;101869.72;;;10.38;57.53
78671;BME280;68277;52.724;6.516;2023-04-10T07:24:04;101869.69;;;10.46;59.08
78671;BME280;68277;52.724;6.516;2023-04-10T07:26:30;101823.06;;;10.26;57.89
78671;BME280;68277;52.724;6.516;2023-04-10T07:28:55;101845.59;;;10.83;56.87
78671;BME280;68277;52.724;6.516;2023-04-10T07:31:21;101836.34;;;11.34;54.96
78671;BME280;68277;52.724;6.516;2023-04-10T07:33:46;101853.03;;;12.24;53.38
78671;BME280;68277;52.724;6.516;2023-04-10T07:36:12;101788.06;;;11.86;53.79
78671;BME280;68277;52.724;6.516;2023-04-10T07:38:37;101801.31;;;12.51;52.08
78671;BME280;68277;52.724;6.516;2023-04-10T07:41:03;101829.34;;;12.70;51.19
78671;BME280;68277;52.724;6.516;2023-04-10T07:43:29;101803.03;;;12.55;51.67
78671;BME280;68277;52.724;6.516;2023-04-10T07:45:55;101805.19;;;12.27;53.89
78671;BME280;68277;52.724;6.516;2023-04-10T07:48:21;101818.78;;;12.05;52.69
78671;BME280;68277;52.724;6.516;2023-04-10T07:50:47;101792.41;;;11.93;53.45
78671;BME280;68277;52.724;6.516;2023-04-10T07:53:13;101801.56;;;12.33;53.41
78671;BME280;68277;52.724;6.516;2023-04-10T07:55:43;101782.16;;;12.29;51.72
78671;BME280;68277;52.724;6.516;2023-04-10T07:58:09;101772.19;;;12.44;51.99
78671;BME280;68277;52.724;6.516;2023-04-10T08:00:35;101792.13;;;12.72;51.43
78671;BME280;68277;52.724;6.516;2023-04-10T08:03:03;101774.16;;;12.86;53.35
78671;BME280;68277;52.724;6.516;2023-04-10T08:05:29;101764.19;;;13.01;52.16
78671;BME280;68277;52.724;6.516;2023-04-10T08:07:55;101735.00;;;12.98;49.33
78671;BME280;68277;52.724;6.516;2023-04-10T08:10:20;101781.69;;;13.60;49.38
78671;BME280;68277;52.724;6.516;2023-04-10T08:12:46;101728.94;;;13.82;46.51
78671;BME280;68277;52.724;6.516;2023-04-10T08:15:11;101697.53;;;14.36;45.74
78671;BME280;68277;52.724;6.516;2023-04-10T08:17:37;101768.53;;;14.74;47.03
78671;BME280;68277;52.724;6.516;2023-04-10T08:20:03;101753.94;;;14.15;48.23
78671;BME280;68277;52.724;6.516;2023-04-10T08:22:29;101748.56;;;13.77;49.42
78671;BME280;68277;52.724;6.516;2023-04-10T08:24:55;101761.97;;;13.72;49.87
78671;BME280;68277;52.724;6.516;2023-04-10T08:27:21;101730.56;;;13.89;47.38
78671;BME280;68277;52.724;6.516;2023-04-10T08:29:47;101751.06;;;14.24;46.49
78671;BME280;68277;52.724;6.516;2023-04-10T08:32:12;101734.84;;;14.34;47.40
78671;BME280;68277;52.724;6.516;2023-04-10T08:34:38;101735.50;;;14.44;46.84
78671;BME280;68277;52.724;6.516;2023-04-10T08:37:05;101728.94;;;14.20;47.81
78671;BME280;68277;52.724;6.516;2023-04-10T08:39:30;101735.59;;;14.41;47.63
78671;BME280;68277;52.724;6.516;2023-04-10T08:41:57;101736.28;;;14.49;48.25
78671;BME280;68277;52.724;6.516;2023-04-10T08:44:23;101711.41;;;14.50;47.26
78671;BME280;68277;52.724;6.516;2023-04-10T08:46:49;101721.72;;;14.97;44.18
78671;BME280;68277;52.724;6.516;2023-04-10T08:49:33;101735.69;;;15.07;43.27
78671;BME280;68277;52.724;6.516;2023-04-10T08:52:06;101714.81;;;15.23;42.75
78671;BME280;68277;52.724;6.516;2023-04-10T08:54:37;101728.84;;;15.91;41.13
78671;BME280;68277;52.724;6.516;2023-04-10T08:57:05;101732.84;;;16.62;41.68
78671;BME280;68277;52.724;6.516;2023-04-10T08:59:31;101735.44;;;16.64;41.73
78671;BME280;68277;52.724;6.516;2023-04-10T09:01:57;101694.50;;;16.35;40.15
78671;BME280;68277;52.724;6.516;2023-04-10T09:04:24;101713.56;;;16.53;39.72
78671;BME280;68277;52.724;6.516;2023-04-10T09:06:51;101667.00;;;16.60;41.74
78671;BME280;68277;52.724;6.516;2023-04-10T09:09:17;101710.38;;;16.68;41.70
78671;BME280;68277;52.724;6.516;2023-04-10T09:14:22;101707.03;;;16.06;42.83
78671;BME280;68277;52.724;6.516;2023-04-10T09:16:48;101656.47;;;16.01;41.45
78671;BME280;68277;52.724;6.516;2023-04-10T09:19:28;101672.28;;;16.07;41.64
78671;BME280;68277;52.724;6.516;2023-04-10T09:21:55;101659.94;;;16.03;41.13
78671;BME280;68277;52.724;6.516;2023-04-10T09:24:22;101698.00;;;16.10;39.54
78671;BME280;68277;52.724;6.516;2023-04-10T09:26:47;101657.44;;;15.97;40.82
78671;BME280;68277;52.724;6.516;2023-04-10T09:29:13;101685.63;;;16.07;40.09
78671;BME280;68277;52.724;6.516;2023-04-10T09:31:41;101676.31;;;15.63;41.16
78671;BME280;68277;52.724;6.516;2023-04-10T09:34:16;101694.75;;;15.71;41.32
78671;BME280;68277;52.724;6.516;2023-04-10T09:36:44;101657.19;;;15.17;42.65
78671;BME280;68277;52.724;6.516;2023-04-10T09:39:17;101666.91;;;14.87;41.63
78671;BME280;68277;52.724;6.516;2023-04-10T09:41:50;101685.75;;;15.12;42.94
78671;BME280;68277;52.724;6.516;2023-04-10T09:44:19;101668.16;;;15.06;43.87
78671;BME280;68277;52.724;6.516;2023-04-10T09:46:52;101679.78;;;15.35;42.89
78671;BME280;68277;52.724;6.516;2023-04-10T09:49:18;101640.28;;;15.49;41.93
78671;BME280;68277;52.724;6.516;2023-04-10T09:51:43;101659.44;;;16.18;41.27
78671;BME280;68277;52.724;6.516;2023-04-10T09:54:09;101653.50;;;16.36;40.54
78671;BME280;68277;52.724;6.516;2023-04-10T09:56:37;101649.47;;;16.23;40.90
78671;BME280;68277;52.724;6.516;2023-04-10T09:59:05;101601.97;;;16.07;42.45
78671;BME280;68277;52.724;6.516;2023-04-10T10:01:32;101598.97;;;16.42;41.18
78671;BME280;68277;52.724;6.516;2023-04-10T10:04:03;101634.28;;;17.02;40.79
78671;BME280;68277;52.724;6.516;2023-04-10T10:06:32;101618.31;;;16.76;39.86
78671;BME280;68277;52.724;6.516;2023-04-10T10:09:03;101606.06;;;16.94;38.73
78671;BME280;68277;52.724;6.516;2023-04-10T10:11:32;101613.72;;;17.04;40.22
78671;BME280;68277;52.724;6.516;2023-04-10T10:13:59;101587.78;;;16.82;40.45
78671;BME280;68277;52.724;6.516;2023-04-10T10:16:33;101566.50;;;16.56;40.36
78671;BME280;68277;52.724;6.516;2023-04-10T10:19:36;101591.59;;;16.50;40.60
78671;BME280;68277;52.724;6.516;2023-04-10T10:22:06;101582.94;;;16.16;41.36
78671;BME280;68277;52.724;6.516;2023-04-10T10:24:35;101581.16;;;16.42;41.32
78671;BME280;68277;52.724;6.516;2023-04-10T10:27:03;101567.22;;;16.34;41.74
78671;BME280;68277;52.724;6.516;2023-04-10T10:29:36;101553.16;;;16.02;41.70
78671;BME280;68277;52.724;6.516;2023-04-10T10:32:05;101580.66;;;16.05;42.15
78671;BME280;68277;52.724;6.516;2023-04-10T10:34:31;101556.78;;;16.01;42.27
78671;BME280;68277;52.724;6.516;2023-04-10T10:36:58;101511.50;;;15.98;42.30
78671;BME280;68277;52.724;6.516;2023-04-10T10:42:15;101547.81;;;16.28;42.49
78671;BME280;68277;52.724;6.516;2023-04-10T10:44:59;101532.34;;;16.13;41.89
78671;BME280;68277;52.724;6.516;2023-04-10T10:47:29;101520.84;;;15.85;41.09
78671;BME280;68277;52.724;6.516;2023-04-10T10:50:00;101530.94;;;15.75;42.55
78671;BME280;68277;52.724;6.516;2023-04-10T10:52:43;101532.69;;;15.76;42.01
78671;BME280;68277;52.724;6.516;2023-04-10T10:57:57;101519.03;;;15.85;42.57
78671;BME280;68277;52.724;6.516;2023-04-10T11:00:24;101483.91;;;15.71;41.97
78671;BME280;68277;52.724;6.516;2023-04-10T11:05:50;101501.78;;;15.95;42.34
78671;BME280;68277;52.724;6.516;2023-04-10T11:08:36;101488.94;;;16.06;42.11
78671;BME280;68277;52.724;6.516;2023-04-10T11:11:15;101497.25;;;15.97;41.56
78671;BME280;68277;52.724;6.516;2023-04-10T11:19:09;101458.91;;;15.75;42.09
78671;BME280;68277;52.724;6.516;2023-04-10T11:22:00;101484.28;;;15.87;42.51
78671;BME280;68277;52.724;6.516;2023-04-10T11:24:26;101448.53;;;15.66;42.10
78671;BME280;68277;52.724;6.516;2023-04-10T11:26:54;101454.03;;;15.61;42.15
78671;BME280;68277;52.724;6.516;2023-04-10T11:31:56;101428.72;;;15.47;42.01
78671;BME280;68277;52.724;6.516;2023-04-10T11:34:23;101425.22;;;15.43;42.71
78671;BME280;68277;52.724;6.516;2023-04-10T11:36:49;101444.19;;;15.62;43.09
78671;BME280;68277;52.724;6.516;2023-04-10T11:39:18;101420.41;;;15.56;42.69
78671;BME280;68277;52.724;6.516;2023-04-10T11:41:48;101439.44;;;15.71;42.32
78671;BME280;68277;52.724;6.516;2023-04-10T11:44:36;101425.59;;;15.85;42.30
78671;BME280;68277;52.724;6.516;2023-04-10T11:47:03;101393.47;;;15.88;43.29
78671;BME280;68277;52.724;6.516;2023-04-10T11:49:31;101378.84;;;15.73;41.90
78671;BME280;68277;52.724;6.516;2023-04-10T11:51:58;101415.31;;;15.99;42.78
78671;BME280;68277;52.724;6.516;2023-04-10T11:54:26;101346.41;;;15.61;42.51
78671;BME280;68277;52.724;6.516;2023-04-10T11:57:18;101396.19;;;16.11;43.26
78671;BME280;68277;52.724;6.516;2023-04-10T11:59:49;101366.78;;;16.13;42.27
78671;BME280;68277;52.724;6.516;2023-04-10T12:02:16;101337.16;;;15.96;42.32
78671;BME280;68277;52.724;6.516;2023-04-10T12:04:43;101368.47;;;16.15;42.45
78671;BME280;68277;52.724;6.516;2023-04-10T12:07:09;101401.00;;;16.50;42.34
78671;BME280;68277;52.724;6.516;2023-04-10T12:09:34;101325.31;;;16.26;42.40
78671;BME280;68277;52.724;6.516;2023-04-10T12:12:02;101347.97;;;16.39;42.00
78671;BME280;68277;52.724;6.516;2023-04-10T12:14:37;101381.56;;;16.69;41.92
78671;BME280;68277;52.724;6.516;2023-04-10T12:17:05;101380.09;;;16.84;41.67
78671;BME280;68277;52.724;6.516;2023-04-10T12:19:39;101341.53;;;16.89;41.83
78671;BME280;68277;52.724;6.516;2023-04-10T12:22:06;101354.84;;;17.13;42.17
78671;BME280;68277;52.724;6.516;2023-04-10T12:24:44;101356.59;;;17.14;42.07
78671;BME280;68277;52.724;6.516;2023-04-10T12:27:15;101336.63;;;16.79;41.68
78671;BME280;68277;52.724;6.516;2023-04-10T12:29:42;101340.59;;;16.69;42.93
78671;BME280;68277;52.724;6.516;2023-04-10T12:32:08;101332.88;;;16.61;43.09
78671;BME280;68277;52.724;6.516;2023-04-10T12:34:35;101292.16;;;16.31;43.72
78671;BME280;68277;52.724;6.516;2023-04-10T12:37:00;101327.34;;;16.42;43.71
78671;BME280;68277;52.724;6.516;2023-04-10T12:39:27;101342.16;;;16.28;43.20
78671;BME280;68277;52.724;6.516;2023-04-10T12:41:53;101351.31;;;16.21;44.00
78671;BME280;68277;52.724;6.516;2023-04-10T12:44:55;101319.69;;;16.10;44.64
78671;BME280;68277;52.724;6.516;2023-04-10T12:47:22;101298.34;;;15.86;44.15
78671;BME280;68277;52.724;6.516;2023-04-10T12:50:04;101339.91;;;16.17;44.95
78671;BME280;68277;52.724;6.516;2023-04-10T12:52:30;101343.81;;;16.07;44.05
78671;BME280;68277;52.724;6.516;2023-04-10T12:57:37;101302.00;;;16.08;44.13
78671;BME280;68277;52.724;6.516;2023-04-10T13:00:05;101295.06;;;16.25;44.17
78671;BME280;68277;52.724;6.516;2023-04-10T13:02:30;101317.34;;;16.48;43.47
78671;BME280;68277;52.724;6.516;2023-04-10T13:04:56;101270.09;;;16.26;44.51
78671;BME280;68277;52.724;6.516;2023-04-10T13:07:21;101278.19;;;16.47;44.26
78671;BME280;68277;52.724;6.516;2023-04-10T13:09:47;101258.00;;;16.39;44.13
78671;BME280;68277;52.724;6.516;2023-04-10T13:12:13;101301.78;;;16.59;44.34
78671;BME280;68277;52.724;6.516;2023-04-10T13:14:39;101287.84;;;16.51;44.27
78671;BME280;68277;52.724;6.516;2023-04-10T13:17:04;101275.09;;;16.35;45.42
78671;BME280;68277;52.724;6.516;2023-04-10T13:19:30;101275.66;;;16.43;44.70
78671;BME280;68277;52.724;6.516;2023-04-10T13:21:55;101228.63;;;16.18;45.46
78671;BME280;68277;52.724;6.516;2023-04-10T13:24:21;101254.22;;;16.45;45.01
78671;BME280;68277;52.724;6.516;2023-04-10T13:26:46;101236.41;;;16.46;45.22
78671;BME280;68277;52.724;6.516;2023-04-10T13:29:12;101206.41;;;16.39;44.70
78671;BME280;68277;52.724;6.516;2023-04-10T13:31:37;101201.47;;;16.28;44.22
78671;BME280;68277;52.724;6.516;2023-04-10T13:34:03;101187.59;;;16.19;44.87
78671;BME280;68277;52.724;6.516;2023-04-10T13:36:29;101188.16;;;16.05;44.24
78671;BME280;68277;52.724;6.516;2023-04-10T13:38:55;101158.19;;;15.99;45.31
78671;BME280;68277;52.724;6.516;2023-04-10T13:41:21;101215.06;;;16.22;45.42
78671;BME280;68277;52.724;6.516;2023-04-10T13:43:48;101206.31;;;16.19;45.64